Northeast Iowa Regional Airport
KCCY : now visible

Airfield :











YOU CAN JOIN US ON...

 
LOGIN :

Register | Disclaimer

   EN    FR    IT 

 









Legend :    VFR   Marginal VFR   IFR   Intensive IFR   Very Intensive IFR
Visi :
Ceiling :
>= 8 km
>= 3000ft
5 to 8 km
1000 to 3000 ft
1500m to 5 km
500 to 1000 ft
800 to 1500m
200 to 500 ft
< 800m
< 200 ft
Symbols :   Thunderstorms  Fog  Heavy snow  Heavy precipitations  Wind > 20 kt







- Airport Elevation : 1125 ft


KCCY - Northeast Iowa Regional

CURRENT METAR :
  • 181855Z AUTO 20010KT 10SM FEW031 FEW038 FEW045 30/26 A2975 RMK AO2

EXPIRED METARs :
  • 181835Z AUTO 19013KT 10SM SCT022 BKN029 BKN034 29/25 A2975 RMK AO2
  • 181815Z AUTO 21010G15KT 10SM BKN021 OVC029 28/25 A2976 RMK AO2
  • 181755Z AUTO 19012KT 10SM BKN019 BKN033 28/25 A2975 RMK AO2
  • 181735Z AUTO 17013KT 10SM SCT018 28/25 A2975 RMK AO2
  • 181715Z AUTO 17013KT 10SM FEW014 27/24 A2974 RMK AO2
  • 181655Z AUTO 16012G17KT 10SM SCT012 SCT018 26/24 A2975 RMK AO2
  • 181635Z AUTO 15012KT 10SM SCT010 SCT016 26/24 A2975 RMK AO2
  • 181615Z AUTO 13012KT 10SM SCT005 25/23 A2974 RMK AO2

TAF N/A
KZMP FIR / North America



MET'MAP, your aeronautical weather chart ! - Copyright ORBIFLY December 2007 - Disclaimer

ORBIFLY MET'MAP TEAM :

Programming & Development : Alexandra Zaïnal
Concept & Development : Baudouin d'Aumeries
Co-Development & Prog : Marc-Olivier Méhu
Technical & hardware support : Manuel Goepfert

Contact : metmap@orbifly.com




SOURCES & CREDITS :

   NOAA       Earth
Advisory